sensor_id;sensor_type;location;lat;lon;timestamp;P1;durP1;ratioP1;P2;durP2;ratioP2
50709;SDS011;37033;49.994;21.992;2022-09-09T00:01:03;22.50;;;18.90;;
50709;SDS011;37033;49.994;21.992;2022-09-09T00:03:59;20.50;;;18.10;;
50709;SDS011;37033;49.994;21.992;2022-09-09T00:06:55;19.60;;;17.60;;
50709;SDS011;37033;49.994;21.992;2022-09-09T00:09:53;22.10;;;18.30;;
50709;SDS011;37033;49.994;21.992;2022-09-09T00:12:53;24.70;;;19.00;;
50709;SDS011;37033;49.994;21.992;2022-09-09T00:15:53;20.60;;;18.20;;
50709;SDS011;37033;49.994;21.992;2022-09-09T00:18:50;20.10;;;18.10;;
50709;SDS011;37033;49.994;21.992;2022-09-09T00:21:49;21.00;;;16.70;;
50709;SDS011;37033;49.994;21.992;2022-09-09T00:24:45;18.70;;;16.70;;
50709;SDS011;37033;49.994;21.992;2022-09-09T00:27:39;19.50;;;17.10;;
50709;SDS011;37033;49.994;21.992;2022-09-09T00:30:33;19.60;;;17.50;;
50709;SDS011;37033;49.994;21.992;2022-09-09T00:33:25;22.60;;;17.40;;
50709;SDS011;37033;49.994;21.992;2022-09-09T00:36:20;18.10;;;16.10;;
50709;SDS011;37033;49.994;21.992;2022-09-09T00:39:16;17.90;;;16.00;;
50709;SDS011;37033;49.994;21.992;2022-09-09T00:42:13;20.00;;;16.70;;
50709;SDS011;37033;49.994;21.992;2022-09-09T00:45:10;18.80;;;16.40;;
50709;SDS011;37033;49.994;21.992;2022-09-09T00:48:19;18.40;;;16.40;;
50709;SDS011;37033;49.994;21.992;2022-09-09T00:51:15;20.20;;;16.80;;
50709;SDS011;37033;49.994;21.992;2022-09-09T00:54:16;20.10;;;16.60;;
50709;SDS011;37033;49.994;21.992;2022-09-09T00:57:22;19.90;;;17.80;;
50709;SDS011;37033;49.994;21.992;2022-09-09T01:00:22;20.30;;;18.20;;
50709;SDS011;37033;49.994;21.992;2022-09-09T01:03:25;21.30;;;17.10;;
50709;SDS011;37033;49.994;21.992;2022-09-09T01:06:25;19.80;;;17.70;;
50709;SDS011;37033;49.994;21.992;2022-09-09T01:09:21;20.10;;;17.90;;
50709;SDS011;37033;49.994;21.992;2022-09-09T01:12:15;22.30;;;17.80;;
50709;SDS011;37033;49.994;21.992;2022-09-09T01:15:13;20.80;;;18.50;;
50709;SDS011;37033;49.994;21.992;2022-09-09T01:18:08;19.30;;;17.30;;
50709;SDS011;37033;49.994;21.992;2022-09-09T01:21:04;21.10;;;18.00;;
50709;SDS011;37033;49.994;21.992;2022-09-09T01:27:19;24.30;;;18.70;;
50709;SDS011;37033;49.994;21.992;2022-09-09T01:30:13;21.10;;;18.50;;
50709;SDS011;37033;49.994;21.992;2022-09-09T01:33:04;24.30;;;19.10;;
50709;SDS011;37033;49.994;21.992;2022-09-09T01:36:02;24.60;;;19.10;;
50709;SDS011;37033;49.994;21.992;2022-09-09T01:38:57;32.80;;;22.70;;
50709;SDS011;37033;49.994;21.992;2022-09-09T01:41:47;46.50;;;29.40;;
50709;SDS011;37033;49.994;21.992;2022-09-09T01:44:38;53.10;;;33.10;;
50709;SDS011;37033;49.994;21.992;2022-09-09T01:47:28;51.30;;;32.10;;
50709;SDS011;37033;49.994;21.992;2022-09-09T01:50:19;50.90;;;33.40;;
50709;SDS011;37033;49.994;21.992;2022-09-09T01:53:10;61.80;;;34.10;;
50709;SDS011;37033;49.994;21.992;2022-09-09T01:56:05;52.70;;;33.00;;
50709;SDS011;37033;49.994;21.992;2022-09-09T01:59:07;55.70;;;33.80;;
50709;SDS011;37033;49.994;21.992;2022-09-09T02:02:09;49.80;;;32.90;;
50709;SDS011;37033;49.994;21.992;2022-09-09T02:05:08;61.60;;;35.40;;
50709;SDS011;37033;49.994;21.992;2022-09-09T02:08:06;57.50;;;35.50;;
50709;SDS011;37033;49.994;21.992;2022-09-09T02:13:51;59.10;;;35.00;;
50709;SDS011;37033;49.994;21.992;2022-09-09T02:16:47;59.30;;;34.60;;
50709;SDS011;37033;49.994;21.992;2022-09-09T02:22:33;63.40;;;34.80;;
50709;SDS011;37033;49.994;21.992;2022-09-09T02:25:26;55.70;;;34.70;;
50709;SDS011;37033;49.994;21.992;2022-09-09T02:28:18;63.40;;;36.80;;
50709;SDS011;37033;49.994;21.992;2022-09-09T02:31:12;61.10;;;37.00;;
50709;SDS011;37033;49.994;21.992;2022-09-09T02:34:05;59.60;;;36.50;;
50709;SDS011;37033;49.994;21.992;2022-09-09T02:37:00;58.60;;;34.90;;
50709;SDS011;37033;49.994;21.992;2022-09-09T02:39:52;59.70;;;34.90;;
50709;SDS011;37033;49.994;21.992;2022-09-09T02:42:43;58.70;;;35.60;;
50709;SDS011;37033;49.994;21.992;2022-09-09T02:45:36;57.60;;;34.70;;
50709;SDS011;37033;49.994;21.992;2022-09-09T02:48:32;66.30;;;37.00;;
50709;SDS011;37033;49.994;21.992;2022-09-09T02:51:34;60.70;;;36.30;;
50709;SDS011;37033;49.994;21.992;2022-09-09T02:54:30;60.30;;;35.30;;
50709;SDS011;37033;49.994;21.992;2022-09-09T02:57:23;57.50;;;35.70;;
50709;SDS011;37033;49.994;21.992;2022-09-09T03:00:16;63.80;;;35.60;;
50709;SDS011;37033;49.994;21.992;2022-09-09T03:03:13;56.60;;;35.10;;
50709;SDS011;37033;49.994;21.992;2022-09-09T03:06:05;55.70;;;35.80;;
50709;SDS011;37033;49.994;21.992;2022-09-09T03:08:55;53.10;;;33.80;;
50709;SDS011;37033;49.994;21.992;2022-09-09T03:11:47;53.30;;;34.40;;
50709;SDS011;37033;49.994;21.992;2022-09-09T03:14:37;56.10;;;34.40;;
50709;SDS011;37033;49.994;21.992;2022-09-09T03:17:28;60.40;;;36.40;;
50709;SDS011;37033;49.994;21.992;2022-09-09T03:20:19;53.90;;;33.20;;
50709;SDS011;37033;49.994;21.992;2022-09-09T03:23:10;60.00;;;36.20;;
50709;SDS011;37033;49.994;21.992;2022-09-09T03:26:00;62.40;;;37.20;;
50709;SDS011;37033;49.994;21.992;2022-09-09T03:28:51;55.80;;;34.40;;
50709;SDS011;37033;49.994;21.992;2022-09-09T03:31:41;50.50;;;33.60;;
50709;SDS011;37033;49.994;21.992;2022-09-09T03:34:31;51.80;;;33.50;;
50709;SDS011;37033;49.994;21.992;2022-09-09T03:37:22;57.00;;;35.00;;
50709;SDS011;37033;49.994;21.992;2022-09-09T03:40:12;52.30;;;32.50;;
50709;SDS011;37033;49.994;21.992;2022-09-09T03:43:04;54.90;;;34.30;;
50709;SDS011;37033;49.994;21.992;2022-09-09T03:45:55;56.10;;;33.20;;
50709;SDS011;37033;49.994;21.992;2022-09-09T03:48:46;51.80;;;33.40;;
50709;SDS011;37033;49.994;21.992;2022-09-09T03:51:37;50.10;;;33.80;;
50709;SDS011;37033;49.994;21.992;2022-09-09T03:54:27;52.70;;;33.50;;
50709;SDS011;37033;49.994;21.992;2022-09-09T03:57:17;53.80;;;31.70;;
50709;SDS011;37033;49.994;21.992;2022-09-09T04:00:09;50.80;;;33.30;;
50709;SDS011;37033;49.994;21.992;2022-09-09T04:03:00;52.90;;;32.60;;
50709;SDS011;37033;49.994;21.992;2022-09-09T04:05:51;47.40;;;31.50;;
50709;SDS011;37033;49.994;21.992;2022-09-09T04:08:42;52.30;;;32.50;;
50709;SDS011;37033;49.994;21.992;2022-09-09T04:11:35;48.20;;;32.10;;
50709;SDS011;37033;49.994;21.992;2022-09-09T04:14:25;50.70;;;32.20;;
50709;SDS011;37033;49.994;21.992;2022-09-09T04:17:16;48.50;;;32.80;;
50709;SDS011;37033;49.994;21.992;2022-09-09T04:20:07;45.30;;;30.90;;
50709;SDS011;37033;49.994;21.992;2022-09-09T04:22:58;50.80;;;32.10;;
50709;SDS011;37033;49.994;21.992;2022-09-09T04:25:48;46.20;;;32.20;;
50709;SDS011;37033;49.994;21.992;2022-09-09T04:28:40;42.90;;;29.20;;
50709;SDS011;37033;49.994;21.992;2022-09-09T04:31:31;46.20;;;30.40;;
50709;SDS011;37033;49.994;21.992;2022-09-09T04:34:24;53.00;;;32.40;;
50709;SDS011;37033;49.994;21.992;2022-09-09T04:37:15;48.10;;;32.90;;
50709;SDS011;37033;49.994;21.992;2022-09-09T04:40:06;47.20;;;32.90;;
50709;SDS011;37033;49.994;21.992;2022-09-09T04:42:58;45.70;;;31.70;;
50709;SDS011;37033;49.994;21.992;2022-09-09T04:45:49;49.70;;;32.60;;
50709;SDS011;37033;49.994;21.992;2022-09-09T04:48:40;46.60;;;31.10;;
50709;SDS011;37033;49.994;21.992;2022-09-09T04:51:30;45.80;;;31.50;;
50709;SDS011;37033;49.994;21.992;2022-09-09T04:54:21;49.80;;;32.80;;
50709;SDS011;37033;49.994;21.992;2022-09-09T04:57:12;49.60;;;32.50;;
50709;SDS011;37033;49.994;21.992;2022-09-09T05:00:03;43.80;;;30.80;;
50709;SDS011;37033;49.994;21.992;2022-09-09T05:02:55;47.00;;;29.70;;
50709;SDS011;37033;49.994;21.992;2022-09-09T05:05:46;39.60;;;27.20;;
50709;SDS011;37033;49.994;21.992;2022-09-09T05:08:36;36.20;;;25.10;;
50709;SDS011;37033;49.994;21.992;2022-09-09T05:11:29;37.80;;;25.60;;
50709;SDS011;37033;49.994;21.992;2022-09-09T05:14:22;33.50;;;24.80;;
50709;SDS011;37033;49.994;21.992;2022-09-09T05:17:13;36.40;;;25.30;;
50709;SDS011;37033;49.994;21.992;2022-09-09T05:20:04;41.20;;;26.70;;
50709;SDS011;37033;49.994;21.992;2022-09-09T05:22:55;40.50;;;26.20;;
50709;SDS011;37033;49.994;21.992;2022-09-09T05:25:55;35.90;;;25.60;;
50709;SDS011;37033;49.994;21.992;2022-09-09T05:28:45;34.10;;;24.40;;
50709;SDS011;37033;49.994;21.992;2022-09-09T05:31:36;32.70;;;23.60;;
50709;SDS011;37033;49.994;21.992;2022-09-09T05:34:28;32.10;;;22.20;;
50709;SDS011;37033;49.994;21.992;2022-09-09T05:37:18;29.50;;;23.10;;
50709;SDS011;37033;49.994;21.992;2022-09-09T05:40:10;29.30;;;21.70;;
50709;SDS011;37033;49.994;21.992;2022-09-09T05:43:01;27.50;;;21.70;;
50709;SDS011;37033;49.994;21.992;2022-09-09T05:46:01;27.60;;;20.50;;
50709;SDS011;37033;49.994;21.992;2022-09-09T05:48:53;26.00;;;20.30;;
50709;SDS011;37033;49.994;21.992;2022-09-09T05:51:45;30.00;;;22.30;;
50709;SDS011;37033;49.994;21.992;2022-09-09T05:54:37;26.50;;;20.60;;
50709;SDS011;37033;49.994;21.992;2022-09-09T05:57:28;23.60;;;18.70;;
50709;SDS011;37033;49.994;21.992;2022-09-09T06:00:18;24.70;;;18.60;;
50709;SDS011;37033;49.994;21.992;2022-09-09T06:03:11;25.50;;;18.40;;
50709;SDS011;37033;49.994;21.992;2022-09-09T06:06:01;21.10;;;16.30;;
50709;SDS011;37033;49.994;21.992;2022-09-09T06:08:54;17.50;;;15.60;;
50709;SDS011;37033;49.994;21.992;2022-09-09T06:11:45;19.20;;;15.10;;
50709;SDS011;37033;49.994;21.992;2022-09-09T06:14:35;18.20;;;15.90;;
50709;SDS011;37033;49.994;21.992;2022-09-09T06:17:25;19.30;;;15.70;;
50709;SDS011;37033;49.994;21.992;2022-09-09T06:20:16;16.90;;;14.10;;
50709;SDS011;37033;49.994;21.992;2022-09-09T06:23:08;16.30;;;13.90;;
50709;SDS011;37033;49.994;21.992;2022-09-09T06:26:03;13.00;;;11.70;;
50709;SDS011;37033;49.994;21.992;2022-09-09T06:28:55;14.60;;;13.10;;
50709;SDS011;37033;49.994;21.992;2022-09-09T06:31:45;13.80;;;12.40;;
50709;SDS011;37033;49.994;21.992;2022-09-09T06:34:36;16.20;;;14.40;;
50709;SDS011;37033;49.994;21.992;2022-09-09T06:37:27;15.20;;;13.10;;
50709;SDS011;37033;49.994;21.992;2022-09-09T06:40:17;13.70;;;12.40;;
50709;SDS011;37033;49.994;21.992;2022-09-09T06:43:08;14.00;;;12.60;;
50709;SDS011;37033;49.994;21.992;2022-09-09T06:45:59;13.70;;;12.30;;
50709;SDS011;37033;49.994;21.992;2022-09-09T06:48:50;12.60;;;11.40;;
50709;SDS011;37033;49.994;21.992;2022-09-09T06:51:42;14.50;;;11.50;;
50709;SDS011;37033;49.994;21.992;2022-09-09T06:54:33;13.20;;;12.00;;
50709;SDS011;37033;49.994;21.992;2022-09-09T06:57:24;12.80;;;11.50;;
50709;SDS011;37033;49.994;21.992;2022-09-09T07:00:15;13.10;;;11.90;;
50709;SDS011;37033;49.994;21.992;2022-09-09T07:03:05;13.40;;;12.10;;
50709;SDS011;37033;49.994;21.992;2022-09-09T07:05:55;14.20;;;11.80;;
50709;SDS011;37033;49.994;21.992;2022-09-09T07:08:51;13.70;;;10.90;;
50709;SDS011;37033;49.994;21.992;2022-09-09T07:11:43;11.90;;;10.70;;
50709;SDS011;37033;49.994;21.992;2022-09-09T07:14:34;13.20;;;11.80;;
50709;SDS011;37033;49.994;21.992;2022-09-09T07:17:25;14.00;;;12.20;;
50709;SDS011;37033;49.994;21.992;2022-09-09T07:20:15;12.10;;;11.00;;
50709;SDS011;37033;49.994;21.992;2022-09-09T07:23:06;16.00;;;13.20;;
50709;SDS011;37033;49.994;21.992;2022-09-09T07:25:57;13.90;;;11.50;;
50709;SDS011;37033;49.994;21.992;2022-09-09T07:28:48;12.70;;;11.50;;
50709;SDS011;37033;49.994;21.992;2022-09-09T07:31:39;13.40;;;10.90;;
50709;SDS011;37033;49.994;21.992;2022-09-09T07:34:31;12.70;;;11.50;;
50709;SDS011;37033;49.994;21.992;2022-09-09T07:37:21;12.10;;;11.00;;
50709;SDS011;37033;49.994;21.992;2022-09-09T07:40:12;16.40;;;11.20;;
50709;SDS011;37033;49.994;21.992;2022-09-09T07:43:02;11.30;;;10.20;;
50709;SDS011;37033;49.994;21.992;2022-09-09T07:45:58;11.30;;;10.30;;
50709;SDS011;37033;49.994;21.992;2022-09-09T07:48:49;11.50;;;10.50;;
50709;SDS011;37033;49.994;21.992;2022-09-09T07:51:43;10.10;;;9.20;;
50709;SDS011;37033;49.994;21.992;2022-09-09T07:54:34;9.40;;;8.40;;
50709;SDS011;37033;49.994;21.992;2022-09-09T07:57:24;9.10;;;8.10;;
50709;SDS011;37033;49.994;21.992;2022-09-09T08:00:17;8.00;;;7.30;;
50709;SDS011;37033;49.994;21.992;2022-09-09T08:03:08;7.60;;;6.90;;
50709;SDS011;37033;49.994;21.992;2022-09-09T08:06:01;9.60;;;7.60;;
50709;SDS011;37033;49.994;21.992;2022-09-09T08:08:54;9.50;;;6.70;;
50709;SDS011;37033;49.994;21.992;2022-09-09T08:11:45;7.40;;;6.70;;
50709;SDS011;37033;49.994;21.992;2022-09-09T08:14:35;8.40;;;6.30;;
50709;SDS011;37033;49.994;21.992;2022-09-09T08:17:27;8.90;;;6.60;;
50709;SDS011;37033;49.994;21.992;2022-09-09T08:20:17;6.70;;;6.10;;
50709;SDS011;37033;49.994;21.992;2022-09-09T08:23:10;5.90;;;5.40;;
50709;SDS011;37033;49.994;21.992;2022-09-09T08:26:04;6.00;;;5.50;;
50709;SDS011;37033;49.994;21.992;2022-09-09T08:28:57;5.50;;;5.10;;
50709;SDS011;37033;49.994;21.992;2022-09-09T08:32:22;5.60;;;4.80;;
50709;SDS011;37033;49.994;21.992;2022-09-09T08:35:13;5.00;;;4.50;;
50709;SDS011;37033;49.994;21.992;2022-09-09T08:38:04;5.20;;;4.80;;
50709;SDS011;37033;49.994;21.992;2022-09-09T08:40:55;6.10;;;5.40;;
50709;SDS011;37033;49.994;21.992;2022-09-09T08:43:58;6.10;;;5.60;;
50709;SDS011;37033;49.994;21.992;2022-09-09T08:46:57;6.10;;;5.60;;
50709;SDS011;37033;49.994;21.992;2022-09-09T08:50:05;5.50;;;5.00;;
50709;SDS011;37033;49.994;21.992;2022-09-09T08:53:11;6.60;;;5.20;;
50709;SDS011;37033;49.994;21.992;2022-09-09T08:56:10;6.30;;;5.00;;
50709;SDS011;37033;49.994;21.992;2022-09-09T08:59:02;4.60;;;4.30;;
50709;SDS011;37033;49.994;21.992;2022-09-09T09:01:56;4.80;;;4.50;;
50709;SDS011;37033;49.994;21.992;2022-09-09T09:05:06;6.60;;;4.80;;
50709;SDS011;37033;49.994;21.992;2022-09-09T09:08:08;5.10;;;4.70;;
50709;SDS011;37033;49.994;21.992;2022-09-09T09:11:07;5.20;;;4.80;;
50709;SDS011;37033;49.994;21.992;2022-09-09T09:13:57;6.40;;;5.80;;
50709;SDS011;37033;49.994;21.992;2022-09-09T09:16:52;5.20;;;4.70;;
50709;SDS011;37033;49.994;21.992;2022-09-09T09:19:45;5.10;;;4.70;;
50709;SDS011;37033;49.994;21.992;2022-09-09T09:22:37;5.30;;;4.90;;
50709;SDS011;37033;49.994;21.992;2022-09-09T09:25:35;4.40;;;4.10;;
50709;SDS011;37033;49.994;21.992;2022-09-09T09:28:31;4.80;;;4.40;;
50709;SDS011;37033;49.994;21.992;2022-09-09T09:31:23;9.00;;;4.30;;
50709;SDS011;37033;49.994;21.992;2022-09-09T09:34:13;3.60;;;3.30;;
50709;SDS011;37033;49.994;21.992;2022-09-09T09:37:11;3.90;;;3.30;;
50709;SDS011;37033;49.994;21.992;2022-09-09T09:40:10;3.90;;;3.50;;
50709;SDS011;37033;49.994;21.992;2022-09-09T09:43:02;3.30;;;3.10;;
50709;SDS011;37033;49.994;21.992;2022-09-09T09:45:56;4.30;;;3.90;;
50709;SDS011;37033;49.994;21.992;2022-09-09T09:48:47;3.80;;;3.30;;
50709;SDS011;37033;49.994;21.992;2022-09-09T09:51:46;5.30;;;4.50;;
50709;SDS011;37033;49.994;21.992;2022-09-09T09:54:41;5.00;;;4.70;;
50709;SDS011;37033;49.994;21.992;2022-09-09T09:57:31;5.00;;;4.70;;
50709;SDS011;37033;49.994;21.992;2022-09-09T10:00:23;10.60;;;4.80;;
50709;SDS011;37033;49.994;21.992;2022-09-09T10:03:21;4.90;;;4.50;;
50709;SDS011;37033;49.994;21.992;2022-09-09T10:06:13;8.30;;;3.80;;
50709;SDS011;37033;49.994;21.992;2022-09-09T10:09:18;5.30;;;4.60;;
50709;SDS011;37033;49.994;21.992;2022-09-09T10:12:14;7.30;;;4.30;;
50709;SDS011;37033;49.994;21.992;2022-09-09T10:15:20;4.00;;;3.70;;
50709;SDS011;37033;49.994;21.992;2022-09-09T10:18:25;5.50;;;3.50;;
50709;SDS011;37033;49.994;21.992;2022-09-09T10:21:29;3.30;;;3.00;;
50709;SDS011;37033;49.994;21.992;2022-09-09T10:31:25;3.50;;;3.20;;
50709;SDS011;37033;49.994;21.992;2022-09-09T10:34:35;3.10;;;2.70;;
50709;SDS011;37033;49.994;21.992;2022-09-09T10:41:04;11.50;;;3.70;;
50709;SDS011;37033;49.994;21.992;2022-09-09T10:44:14;3.90;;;3.10;;
50709;SDS011;37033;49.994;21.992;2022-09-09T10:47:25;3.40;;;3.10;;
50709;SDS011;37033;49.994;21.992;2022-09-09T10:50:41;5.30;;;4.80;;
50709;SDS011;37033;49.994;21.992;2022-09-09T10:53:37;4.60;;;4.20;;
50709;SDS011;37033;49.994;21.992;2022-09-09T10:56:51;7.40;;;6.10;;
50709;SDS011;37033;49.994;21.992;2022-09-09T10:59:47;16.00;;;11.50;;
50709;SDS011;37033;49.994;21.992;2022-09-09T11:02:40;6.60;;;3.90;;
50709;SDS011;37033;49.994;21.992;2022-09-09T11:05:31;3.70;;;3.40;;
50709;SDS011;37033;49.994;21.992;2022-09-09T11:08:31;3.40;;;3.10;;
50709;SDS011;37033;49.994;21.992;2022-09-09T11:11:25;3.90;;;3.60;;
50709;SDS011;37033;49.994;21.992;2022-09-09T11:14:21;5.30;;;3.40;;
50709;SDS011;37033;49.994;21.992;2022-09-09T11:17:18;3.90;;;3.60;;
50709;SDS011;37033;49.994;21.992;2022-09-09T11:20:12;4.00;;;3.30;;
50709;SDS011;37033;49.994;21.992;2022-09-09T11:23:04;3.70;;;3.40;;
50709;SDS011;37033;49.994;21.992;2022-09-09T11:26:00;3.10;;;2.90;;
50709;SDS011;37033;49.994;21.992;2022-09-09T11:28:57;3.50;;;3.20;;
50709;SDS011;37033;49.994;21.992;2022-09-09T11:32:00;8.50;;;3.50;;
50709;SDS011;37033;49.994;21.992;2022-09-09T11:35:06;3.60;;;3.30;;
50709;SDS011;37033;49.994;21.992;2022-09-09T11:38:12;3.70;;;3.40;;
50709;SDS011;37033;49.994;21.992;2022-09-09T11:41:07;4.20;;;3.80;;
50709;SDS011;37033;49.994;21.992;2022-09-09T11:44:08;3.30;;;3.00;;
50709;SDS011;37033;49.994;21.992;2022-09-09T11:47:01;4.00;;;3.60;;
50709;SDS011;37033;49.994;21.992;2022-09-09T11:50:22;6.40;;;3.50;;
50709;SDS011;37033;49.994;21.992;2022-09-09T11:53:24;3.70;;;3.00;;
50709;SDS011;37033;49.994;21.992;2022-09-09T11:56:22;7.50;;;3.40;;
50709;SDS011;37033;49.994;21.992;2022-09-09T11:59:20;5.60;;;3.10;;
50709;SDS011;37033;49.994;21.992;2022-09-09T12:02:13;3.60;;;3.30;;
50709;SDS011;37033;49.994;21.992;2022-09-09T12:05:09;3.40;;;2.80;;
50709;SDS011;37033;49.994;21.992;2022-09-09T12:08:02;5.20;;;3.10;;
50709;SDS011;37033;49.994;21.992;2022-09-09T12:10:54;5.60;;;2.90;;
50709;SDS011;37033;49.994;21.992;2022-09-09T12:13:53;7.20;;;4.30;;
50709;SDS011;37033;49.994;21.992;2022-09-09T12:16:45;5.50;;;3.90;;
50709;SDS011;37033;49.994;21.992;2022-09-09T12:19:35;3.70;;;3.40;;
50709;SDS011;37033;49.994;21.992;2022-09-09T12:22:27;6.40;;;3.40;;
50709;SDS011;37033;49.994;21.992;2022-09-09T12:25:29;2.80;;;2.60;;
50709;SDS011;37033;49.994;21.992;2022-09-09T12:28:36;6.80;;;3.30;;
50709;SDS011;37033;49.994;21.992;2022-09-09T12:31:34;3.20;;;2.40;;
50709;SDS011;37033;49.994;21.992;2022-09-09T12:34:34;2.90;;;2.70;;
50709;SDS011;37033;49.994;21.992;2022-09-09T12:37:29;4.30;;;2.90;;
50709;SDS011;37033;49.994;21.992;2022-09-09T12:40:23;3.10;;;2.80;;
50709;SDS011;37033;49.994;21.992;2022-09-09T12:43:18;3.00;;;2.80;;
50709;SDS011;37033;49.994;21.992;2022-09-09T12:46:11;5.90;;;3.50;;
50709;SDS011;37033;49.994;21.992;2022-09-09T12:49:23;2.90;;;2.70;;
50709;SDS011;37033;49.994;21.992;2022-09-09T12:52:19;3.30;;;3.00;;
50709;SDS011;37033;49.994;21.992;2022-09-09T12:55:18;3.70;;;3.00;;
50709;SDS011;37033;49.994;21.992;2022-09-09T12:58:12;2.90;;;2.60;;
50709;SDS011;37033;49.994;21.992;2022-09-09T13:01:05;2.90;;;2.70;;
50709;SDS011;37033;49.994;21.992;2022-09-09T13:04:16;10.50;;;5.10;;
50709;SDS011;37033;49.994;21.992;2022-09-09T13:07:10;3.00;;;2.80;;
50709;SDS011;37033;49.994;21.992;2022-09-09T13:10:03;3.90;;;3.40;;
50709;SDS011;37033;49.994;21.992;2022-09-09T13:12:58;7.10;;;3.00;;
50709;SDS011;37033;49.994;21.992;2022-09-09T13:15:50;5.40;;;3.00;;
50709;SDS011;37033;49.994;21.992;2022-09-09T13:18:43;4.10;;;3.10;;
50709;SDS011;37033;49.994;21.992;2022-09-09T13:21:34;8.30;;;6.60;;
50709;SDS011;37033;49.994;21.992;2022-09-09T13:24:27;4.30;;;3.20;;
50709;SDS011;37033;49.994;21.992;2022-09-09T13:27:25;4.60;;;3.40;;
50709;SDS011;37033;49.994;21.992;2022-09-09T13:30:24;4.50;;;2.40;;
50709;SDS011;37033;49.994;21.992;2022-09-09T13:33:21;2.80;;;2.60;;
50709;SDS011;37033;49.994;21.992;2022-09-09T13:36:11;3.70;;;3.40;;
50709;SDS011;37033;49.994;21.992;2022-09-09T13:39:03;3.10;;;2.80;;
50709;SDS011;37033;49.994;21.992;2022-09-09T13:42:02;4.50;;;2.80;;
50709;SDS011;37033;49.994;21.992;2022-09-09T13:44:53;2.90;;;2.50;;
50709;SDS011;37033;49.994;21.992;2022-09-09T13:47:45;4.70;;;2.70;;
50709;SDS011;37033;49.994;21.992;2022-09-09T13:50:39;2.90;;;2.70;;
50709;SDS011;37033;49.994;21.992;2022-09-09T13:53:30;5.20;;;2.50;;
50709;SDS011;37033;49.994;21.992;2022-09-09T13:56:20;2.70;;;2.50;;
50709;SDS011;37033;49.994;21.992;2022-09-09T13:59:11;2.70;;;2.50;;
50709;SDS011;37033;49.994;21.992;2022-09-09T14:02:02;2.80;;;2.30;;
50709;SDS011;37033;49.994;21.992;2022-09-09T14:04:53;3.90;;;2.50;;
50709;SDS011;37033;49.994;21.992;2022-09-09T14:07:43;3.20;;;2.30;;
50709;SDS011;37033;49.994;21.992;2022-09-09T14:10:34;2.50;;;2.30;;
50709;SDS011;37033;49.994;21.992;2022-09-09T14:13:24;2.70;;;2.30;;
50709;SDS011;37033;49.994;21.992;2022-09-09T14:16:14;2.50;;;2.30;;
50709;SDS011;37033;49.994;21.992;2022-09-09T14:19:05;2.50;;;2.30;;
50709;SDS011;37033;49.994;21.992;2022-09-09T14:21:57;4.00;;;2.20;;
50709;SDS011;37033;49.994;21.992;2022-09-09T14:24:48;5.10;;;1.90;;
50709;SDS011;37033;49.994;21.992;2022-09-09T14:27:38;2.50;;;2.30;;
50709;SDS011;37033;49.994;21.992;2022-09-09T14:30:29;3.00;;;2.30;;
50709;SDS011;37033;49.994;21.992;2022-09-09T14:33:20;2.20;;;2.10;;
50709;SDS011;37033;49.994;21.992;2022-09-09T14:36:10;3.50;;;2.10;;
50709;SDS011;37033;49.994;21.992;2022-09-09T14:39:02;2.50;;;2.30;;
50709;SDS011;37033;49.994;21.992;2022-09-09T14:41:52;2.40;;;2.20;;
50709;SDS011;37033;49.994;21.992;2022-09-09T14:44:43;3.30;;;2.10;;
50709;SDS011;37033;49.994;21.992;2022-09-09T14:47:34;2.50;;;2.30;;
50709;SDS011;37033;49.994;21.992;2022-09-09T14:50:25;3.00;;;2.30;;
50709;SDS011;37033;49.994;21.992;2022-09-09T14:53:16;4.50;;;2.70;;
50709;SDS011;37033;49.994;21.992;2022-09-09T14:56:08;3.50;;;2.40;;
50709;SDS011;37033;49.994;21.992;2022-09-09T14:59:00;3.70;;;2.50;;
50709;SDS011;37033;49.994;21.992;2022-09-09T15:01:51;3.40;;;2.40;;
50709;SDS011;37033;49.994;21.992;2022-09-09T15:04:41;3.10;;;2.20;;
50709;SDS011;37033;49.994;21.992;2022-09-09T15:07:32;2.50;;;2.30;;
50709;SDS011;37033;49.994;21.992;2022-09-09T15:10:23;2.70;;;2.50;;
50709;SDS011;37033;49.994;21.992;2022-09-09T15:13:13;3.80;;;2.80;;
50709;SDS011;37033;49.994;21.992;2022-09-09T15:16:05;5.00;;;3.20;;
50709;SDS011;37033;49.994;21.992;2022-09-09T15:18:57;10.80;;;8.40;;
50709;SDS011;37033;49.994;21.992;2022-09-09T15:21:49;3.00;;;2.80;;
50709;SDS011;37033;49.994;21.992;2022-09-09T15:24:39;2.60;;;2.40;;
50709;SDS011;37033;49.994;21.992;2022-09-09T15:27:29;2.90;;;2.70;;
50709;SDS011;37033;49.994;21.992;2022-09-09T15:30:21;2.90;;;2.60;;
50709;SDS011;37033;49.994;21.992;2022-09-09T15:33:11;5.00;;;2.30;;
50709;SDS011;37033;49.994;21.992;2022-09-09T15:36:11;8.10;;;3.70;;
50709;SDS011;37033;49.994;21.992;2022-09-09T15:39:05;7.00;;;3.60;;
50709;SDS011;37033;49.994;21.992;2022-09-09T15:41:59;7.00;;;2.90;;
50709;SDS011;37033;49.994;21.992;2022-09-09T15:44:49;3.10;;;2.80;;
50709;SDS011;37033;49.994;21.992;2022-09-09T15:47:39;2.60;;;2.40;;
50709;SDS011;37033;49.994;21.992;2022-09-09T15:50:31;7.20;;;6.40;;
50709;SDS011;37033;49.994;21.992;2022-09-09T15:53:21;9.90;;;6.80;;
50709;SDS011;37033;49.994;21.992;2022-09-09T15:56:13;12.40;;;9.40;;
50709;SDS011;37033;49.994;21.992;2022-09-09T15:59:04;10.60;;;9.60;;
50709;SDS011;37033;49.994;21.992;2022-09-09T16:01:55;12.10;;;10.10;;
50709;SDS011;37033;49.994;21.992;2022-09-09T16:04:47;13.10;;;10.70;;
50709;SDS011;37033;49.994;21.992;2022-09-09T16:07:37;12.50;;;11.10;;
50709;SDS011;37033;49.994;21.992;2022-09-09T16:10:29;23.50;;;16.90;;
50709;SDS011;37033;49.994;21.992;2022-09-09T16:13:19;16.60;;;12.90;;
50709;SDS011;37033;49.994;21.992;2022-09-09T16:16:10;27.70;;;15.70;;
50709;SDS011;37033;49.994;21.992;2022-09-09T16:19:02;15.70;;;12.70;;
50709;SDS011;37033;49.994;21.992;2022-09-09T16:21:54;17.80;;;12.20;;
50709;SDS011;37033;49.994;21.992;2022-09-09T16:24:44;22.30;;;16.10;;
50709;SDS011;37033;49.994;21.992;2022-09-09T16:27:35;19.90;;;13.00;;
50709;SDS011;37033;49.994;21.992;2022-09-09T16:30:25;16.00;;;12.20;;
50709;SDS011;37033;49.994;21.992;2022-09-09T16:33:15;16.30;;;12.40;;
50709;SDS011;37033;49.994;21.992;2022-09-09T16:36:07;17.50;;;12.30;;
50709;SDS011;37033;49.994;21.992;2022-09-09T16:38:59;18.50;;;13.20;;
50709;SDS011;37033;49.994;21.992;2022-09-09T16:41:51;19.20;;;12.90;;
50709;SDS011;37033;49.994;21.992;2022-09-09T16:44:42;15.30;;;13.00;;
50709;SDS011;37033;49.994;21.992;2022-09-09T16:47:32;14.20;;;11.50;;
50709;SDS011;37033;49.994;21.992;2022-09-09T16:50:22;18.70;;;12.90;;
50709;SDS011;37033;49.994;21.992;2022-09-09T16:53:12;16.10;;;12.40;;
50709;SDS011;37033;49.994;21.992;2022-09-09T16:56:06;17.00;;;12.30;;
50709;SDS011;37033;49.994;21.992;2022-09-09T16:58:58;15.80;;;13.40;;
50709;SDS011;37033;49.994;21.992;2022-09-09T17:01:49;16.80;;;11.50;;
50709;SDS011;37033;49.994;21.992;2022-09-09T17:04:41;19.40;;;13.20;;
50709;SDS011;37033;49.994;21.992;2022-09-09T17:07:31;16.50;;;11.90;;
50709;SDS011;37033;49.994;21.992;2022-09-09T17:10:23;24.80;;;15.70;;
50709;SDS011;37033;49.994;21.992;2022-09-09T17:13:13;17.50;;;14.40;;
50709;SDS011;37033;49.994;21.992;2022-09-09T17:16:06;23.10;;;14.50;;